Aérodrome :
LOGIN :

S'inscrire | Disclaimer

   EN    FR    IT 

 










Légende :    VFR   VFR Marginal   IFR   IFR Intensif   IFR Très Intensif
Visi : 
Plafond : 
>= 8 km
>= 3000ft
5 à 8 km
1000 à 3000 ft
1500m à 5 km
500 à 1000 ft
800 à 1500m
200 à 500 ft
< 800m
< 200 ft
Symboles :   Orages  Brouillard  Fortes neiges  Fortes précipitations  Vent > 20 kt
SIGMETs :   Divers  Orages  Givrage  Turbulence  Onde Orograph.  Cendres Volcan.







- Altitude de l'aérodrome : 202 ft
- Code IATA : LGW
- Voir les cartes d'approche


EGKK - London Gatwick

DERNIER METAR :
  • 191050Z 14008KT 120V180 9999 SCT009 16/15 Q1004

METARs EXPIRÉS :
  • 191020Z 09004KT 060V120 8000 FEW012 16/15 Q1004
  • 190950Z VRB03KT 4500 BR FEW012 16/15 Q1004
  • 190920Z 09004KT 3500 BR FEW009 SCT045 16/15 Q1004
  • 190850Z 08005KT 040V100 3000 BR FEW009 SCT045 15/15 Q1005
  • 190820Z 08004KT 3500 BR FEW004 SCT008 15/15 Q1005

TAF COR TAF EGKK
Valide du 19 à 07h jusqu'au 20 à 12h UTC


190750Z 1907/2012 09005KT 3000 BR BKN004
BECMG 1907/1910 6000 NSW SCT018
BECMG 1910/1913 17010KT 9999
TEMPO 1910/1917 8000 -RA BKN012
PROB40
TEMPO 1913/1917 BKN008
TEMPO 1920/1924 6000 RA BKN012
PROB40
TEMPO 1920/1924 19015G25KT
BECMG 2003/2006 25012KT
PROB40
TEMPO 2006/2012 27015G25KT
Pas de NOTAMs connus pour ce terrain.



MET'MAP, la Météo Aéronautique d'un coup d'oeil ! - Copyright ORBIFLY Décembre 2007 - Disclaimer

ORBIFLY MET'MAP TEAM :

Programmation & Développement : Alexandra Zaïnal
Conception & Développement : Baudouin d'Aumeries
Co-Programmation & Développement : Marc-Olivier Méhu
Soutien technique & logistique : Manuel Goepfert

Contact : metmap@orbifly.com




SOURCES & CREDITS :

   NOAA